Parsons Landing, Santa Catalina Island Weather observations

Data are for 10 minute period ending at time listed.
 Day   Time   Solar   Ave.   Ave.  Ave.  Vector    Max.   Stn.   Total 
  of    of     Rad.   Air    Rel.  Wind   Wind     Wind   Baro. Precip. 
Year   Day            Temp.  Hum.  Speed  Dir.     Gust   Pres.         
2014   (PST)   W/m2    F      %     mph   deg.      mph    mb.    in.   
------------------------------------------------------------------------
 109   12:20  752.0    69   63.9     1      0.9     0.6    999.0   0.00  
 109   12:30  748.0    70   62.4     1      0.9     0.6    999.0   0.00  
 109   12:40  754.0    71   59.0     1      0.8     0.6    999.0   0.00  
 109   12:50  734.0    72   57.0     1      0.8     0.6    999.0   0.00  
 109   13:00  682.0    71   57.7     1      0.8     0.6    999.0   0.00  
 109   13:10  687.0    71   58.6     1      0.8     0.6    999.0   0.00  
 109   13:20  716.0    72   57.4     1      0.7     0.6    999.0   0.00  
 109   13:30  707.0    73   54.8     1      0.7     0.6    999.0   0.00  
 109   13:40  704.0    72   55.2     1      0.7     0.6    999.0   0.00  
 109   13:50  683.0    72   55.4     1      0.7     0.6    999.0   0.00  
 109   14:00  664.0    70   58.1     1      0.7     0.6    999.0   0.00  
 109   14:10  648.0    71   57.5     1      0.7     0.6    999.0   0.00  
 109   14:20  627.0    72   56.1     1      0.7     0.6    999.0   0.00  
 109   14:30  608.0    74   53.9     1      0.7     0.6    999.0   0.00  
 109   14:40  585.0    74   53.7     1      0.7     0.6    999.0   0.00  
 109   14:50  560.0    74   54.2     1      0.7     0.6    999.0   0.00  
 109   15:00  535.0    73   54.2     1      0.7     0.6    999.0   0.00  
 109   15:10  511.0    73   54.8     1      0.7     0.6    999.0   0.00  
 109   15:20  486.0    71   59.2     1      0.7     0.6    999.0   0.00  
 109   15:30  458.0    67   65.9     1      0.7     0.6    999.0   0.00  
 109   15:40  432.0    66   67.4     1      0.7     0.6    999.0   0.00  
 109   15:50  406.0    66   68.0     1      0.7     0.6    999.0   0.00  
 109   16:00  377.0    64   72.4     1      0.8     0.6    999.0   0.00  
 109   16:10  347.0    64   72.0     1      0.8     0.6    999.0   0.00  
 109   16:20  318.0    64   72.6     1      0.8     0.6    999.0   0.00  
 109   16:30  290.0    64   72.9     1      0.8     0.6    999.0   0.00  
 109   16:40  261.0    65   71.4     1      0.8     0.6    999.0   0.00  
 109   16:50  232.0    65   70.6     1      0.8     0.6    999.0   0.00  
 109   17:00  203.0    64   71.7     1      0.8     0.6    999.0   0.00  
 109   17:10  174.0    63   73.2     1      0.8     0.6    999.0   0.00  
 109   17:20  146.0    62   74.9     1      0.8     0.6    999.0   0.00  
 109   17:30  120.0    61   74.3     1      0.8     0.6    999.0   0.00  
 109   17:40   95.0    61   74.6     1      0.8     0.6    999.0   0.00  
 109   17:50   59.0    61   76.0     1      0.9     0.6    999.0   0.00  
 109   18:00   37.0    60   78.0     1      1.0     0.6    999.0   0.00  
 109   18:10   19.0    60   77.9     1      1.0     0.6    999.0   0.00  
 109   18:20   13.0    60   77.5     1      1.1     0.6    999.0   0.00  
 109   18:30    7.0    59   80.2     1      1.4     0.6    999.0   0.00  
 109   18:40    1.0    59   81.2     1      1.8     0.6    999.0   0.00  
 109   18:50    0.0    59   80.6     1      1.8     0.6    999.0   0.00  
 109   19:00    0.0    59   80.5     1      1.9     0.6    999.0   0.00  
 109   19:10    0.0    59   80.9     1      2.2     0.6    999.0   0.00  
 109   19:20    0.0    58   82.3     1      2.7     0.6    999.0   0.00  
 109   19:30    0.0    58   83.7     1      3.4     0.6    999.0   0.00  
 109   19:40    0.0    58   84.8     1      3.9     0.6    999.0   0.00  
 109   19:50    0.0    57   85.2     1      3.9     0.6    999.0   0.00  
 109   20:00    0.0    57   84.5     1      3.5     0.6    999.0   0.00  
 109   20:10    0.0    58   83.1     1      3.2     0.6    999.0   0.00  
 109   20:20    0.0    59   81.5     1      3.0     0.6    999.0   0.00  
 109   20:30    0.0    58   80.6     1      2.8     0.6    999.0   0.00  
 109   20:40    0.0    59   79.8     1      2.7     0.6    999.0   0.00  
 109   20:50    0.0    58   80.5     1      3.0     0.6    999.0   0.00  
 109   21:00    0.0    58   81.6     1      3.3     0.6    999.0   0.00  
 109   21:10    0.0    58   83.1     1      3.5     0.6    999.0   0.00  
 109   21:20    0.0    58   83.1     1      3.5     0.6    999.0   0.00  
 109   21:30    0.0    58   82.4     1      3.3     0.6    999.0   0.00  
 109   21:40    0.0    57   82.4     1      3.3     0.6    999.0   0.00  
 109   21:50    0.0    57   82.7     1      3.5     0.6    999.0   0.00  
 109   22:00    0.0    57   82.7     1      3.6     0.6    999.0   0.00  
 109   22:10    0.0    57   82.7     1      3.6     0.6    999.0   0.00  
 109   22:20    0.0    57   82.8     1      3.8     0.6    999.0   0.00  
 109   22:30    0.0    56   83.9     1      4.2     0.6    999.0   0.00  
 109   22:40    0.0    56   85.1     1      4.4     0.6    999.0   0.00  
 109   22:50    0.0    57   85.7     1      4.4     0.6    999.0   0.00  
 109   23:00    0.0    57   86.4     1      4.8     0.6    999.0   0.00  
 109   23:10    0.0    57   86.2     1      4.9     0.6    999.0   0.00  
 109   23:20    0.0    56   86.8     1      4.9     0.6    999.0   0.00  
 109   23:30    0.0    56   86.6     1      4.7     0.6    999.0   0.00  
 109   23:40    0.0    57   86.9     1      4.8     0.6    999.0   0.00  
 109   23:50    0.0    57   86.6     1      4.6     0.6    999.0   0.00  
 110    0:00    0.0    57   87.0     1      4.9     0.6    999.0   0.00  
 110    0:10    0.0    57   87.0     1      5.0     0.6    999.0   0.00  
 110    0:20    0.0    56   87.1     1      5.3     0.6    999.0   0.00  
 110    0:30    0.0    56   87.9     1      5.6     0.6    999.0   0.00  
 110    0:40    0.0    56   88.2     1      5.9     0.6    999.0   0.00  
 110    0:50    0.0    57   88.7     1      6.3     0.6    999.0   0.00  
 110    1:00    0.0    56   88.5     1      6.4     0.6    999.0   0.00  
 110    1:10    0.0    56   89.3     1      6.7     0.6    999.0   0.00  
 110    1:20    0.0    55   89.1     1      6.8     0.6    999.0   0.00  
 110    1:30    0.0    55   89.6     1      6.7     0.6    999.0   0.00  
 110    1:40    0.0    55   90.2     1      6.7     0.6    999.0   0.00  
 110    1:50    0.0    56   90.3     1      7.0     0.6    999.0   0.00  
 110    2:00    0.0    56   90.4     1      7.0     0.6    999.0   0.00  
 110    2:10    0.0    56   90.5     1      7.3     0.6    999.0   0.00  
 110    2:20    0.0    56   90.3     1      7.3     0.6    999.0   0.00  
 110    2:30    0.0    56   90.4     1      7.4     0.6    999.0   0.00  
 110    2:40    0.0    56   90.8     1      7.5     0.6    999.0   0.00  
 110    2:50    0.0    57   90.8     1      7.4     0.6    999.0   0.00  
 110    3:00    0.0    56   91.0     1      7.2     0.6    999.0   0.00  
 110    3:10    0.0    57   91.2     1      7.5     0.6    999.0   0.00  
 110    3:20    0.0    56   91.2     1      7.5     0.6    999.0   0.00  
 110    3:30    0.0    56   91.4     1      7.4     0.6    999.0   0.00  
 110    3:40    0.0    55   91.3     1      7.6     0.6    999.0   0.00  
 110    3:50    0.0    54   91.3     1      7.4     0.6    999.0   0.00  
 110    4:00    0.0    55   91.8     1      7.4     0.6    999.0   0.00  
 110    4:10    0.0    56   91.9     1      7.5     0.6    999.0   0.00  
 110    4:20    0.0    56   91.9     1      7.2     0.6    999.0   0.00  
 110    4:30    0.0    56   92.0     1      7.1     0.6    999.0   0.00  
 110    4:40    0.0    56   91.9     1      7.0     0.6    999.0   0.00  
 110    4:50    0.0    56   92.2     1      7.0     0.6    999.0   0.00  
 110    5:00    0.0    56   92.0     1      7.0     0.6    999.0   0.00  
 110    5:10    0.0    55   92.0     1      6.9     0.6    999.0   0.00  
 110    5:20    2.0    56   92.0     1      7.0     0.6    999.0   0.00  
 110    5:30    8.0    56   92.0     1      7.0     0.6    999.0   0.00  
 110    5:40   18.0    55   91.9     1      7.0     0.6    999.0   0.00  
 110    5:50   35.0    56   92.1     1      6.9     0.6    999.0   0.00  
 110    6:00   57.0    57   91.7     1      6.9     0.6    999.0   0.00  
 110    6:10   82.0    57   91.3     1      6.8     0.6    999.0   0.00  
 110    6:20  107.0    57   90.9     1      6.2     0.6    999.0   0.00  
 110    6:30  133.0    58   90.3     1      6.4     0.6    999.0   0.00  
 110    6:40  160.0    60   89.6     1      7.7     0.6    999.0   0.00  
 110    6:50  188.0    60   88.9     1      8.4     0.6    999.0   0.00  
 110    7:00  216.0    60   88.1     1      9.1     0.6    999.0   0.00  
 110    7:10  243.0    61   87.1     1      9.7     0.6    999.0   0.00  
 110    7:20  275.0    61   86.2     1      9.4     0.6    999.0   0.00  
 110    7:30  304.0    61   85.6     1      8.7     0.6    999.0   0.00  
 110    7:40  328.0    62   84.4     1      7.8     0.6    999.0   0.00  
 110    7:50  329.0    62   83.5     1      6.8     0.6    999.0   0.00  
 110    8:00  353.0    63   83.5     1      6.0     0.6    999.0   0.00  
 110    8:10  411.0    64   81.6     1      5.2     0.6    999.0   0.00  
 110    8:20  252.0    62   82.2     1      4.6     0.6    999.0   0.00  
 110    8:30  262.0    62   83.9     1      4.7     0.6    999.0   0.00  
 110    8:40  248.0    62   83.6     1      4.6     0.6    999.0   0.00  
 110    8:50  254.0    62   83.3     1      4.5     1.2    999.0   0.00  
 110    9:00  356.0    63   82.9     1      4.5     1.2    999.0   0.00  
 110    9:10  494.0    64   81.2     1      4.3     0.6    999.0   0.00  
 110    9:20  710.0    68   76.0     1      3.9     0.6    999.0   0.00  
 110    9:30  601.0    68   73.4     1      3.3     0.6    999.0   0.00  
 110    9:40  474.0    66   76.1     1      2.8     0.6    999.0   0.00  
 110    9:50  361.0    64   77.9     1      2.6     0.6    999.0   0.00  
 110   10:00  377.0    64   80.0     1      2.6     0.6    999.0   0.00  
 110   10:10  517.0    64   78.8     1      2.6     0.6    999.0   0.00  
 110   10:20  642.0    65   78.7     1      2.5     0.6    999.0   0.00  
 110   10:30  761.0    66   77.2     1      2.5     0.6    999.0   0.00  
 110   10:40  748.0    66   76.2     1      2.3     0.6    999.0   0.00  
 110   10:50  716.0    66   77.1     1      2.2     0.6    999.0   0.00  
 110   11:00  714.0    66   76.3     1      2.1     0.6    999.0   0.00  
 110   11:10  746.0    65   77.7     1      2.1     0.6    999.0   0.00  
 110   11:20  723.0    65   78.4     1      2.0     0.6    999.0   0.00  
 110   11:30  758.0    66   76.9     1      2.0     0.6    999.0   0.00  
 110   11:40  724.0    65   77.2     1      2.0     0.6    999.0   0.00  
 110   11:50  767.0    65   78.2     1      1.9     0.6    999.0   0.00  
 110   12:00  772.0    66   76.7     1      1.9     0.6    999.0   0.00  
 110   12:10  769.0    66   76.6     1      1.9     0.6    999.0   0.00  

Return to Parsons Landing graphs page.


Western Regional Climate Center,wrcc@dri.edu